ADDS METAR Data

Data at: 0513 UTC 19 Jan 2018

METAR for:KLWM (Lawrence Muni, MA, US)
Text:KLWM 190454Z AUTO 22003KT 10SM CLR M07/M10 A2995 RMK AO2 SLP143 T10671100 400001078
Temperature: -6.7°C ( 20°F)
Dewpoint:-10.0°C ( 14°F) [RH = 77%]
Pressure (altimeter):29.95 inches Hg (1014.3 mb) [Sea level pressure: 1014.3 mb]
Winds:from the SW (220 degrees) at 3 MPH (3 knots; 1.5 m/s)
Visibility:10 or more sm (16+ km)
Ceiling:at least 12,000 feet AGL
Clouds:sky clear below 12,000 feet AGL
QC Flag:automated observation with no human augmentation